sensor_id;sensor_type;location;lat;lon;timestamp;P1;durP1;ratioP1;P2;durP2;ratioP2
57331;SDS011;43164;50.908;18.092;2023-05-19T00:00:39;14.10;;;5.20;;
57331;SDS011;43164;50.908;18.092;2023-05-19T00:03:15;11.40;;;4.60;;
57331;SDS011;43164;50.908;18.092;2023-05-19T00:06:00;12.90;;;4.50;;
57331;SDS011;43164;50.908;18.092;2023-05-19T00:08:33;11.60;;;4.40;;
57331;SDS011;43164;50.908;18.092;2023-05-19T00:11:01;11.20;;;4.80;;
57331;SDS011;43164;50.908;18.092;2023-05-19T00:13:30;10.20;;;4.30;;
57331;SDS011;43164;50.908;18.092;2023-05-19T00:15:57;10.30;;;4.90;;
57331;SDS011;43164;50.908;18.092;2023-05-19T00:18:24;14.90;;;5.40;;
57331;SDS011;43164;50.908;18.092;2023-05-19T00:20:52;10.70;;;4.70;;
57331;SDS011;43164;50.908;18.092;2023-05-19T00:23:20;11.40;;;5.20;;
57331;SDS011;43164;50.908;18.092;2023-05-19T00:25:56;10.50;;;4.40;;
57331;SDS011;43164;50.908;18.092;2023-05-19T00:28:33;12.60;;;5.10;;
57331;SDS011;43164;50.908;18.092;2023-05-19T00:31:13;9.70;;;4.10;;
57331;SDS011;43164;50.908;18.092;2023-05-19T00:33:41;9.90;;;4.80;;
57331;SDS011;43164;50.908;18.092;2023-05-19T00:36:09;11.90;;;5.20;;
57331;SDS011;43164;50.908;18.092;2023-05-19T00:38:37;10.70;;;4.40;;
57331;SDS011;43164;50.908;18.092;2023-05-19T00:41:05;11.30;;;4.40;;
57331;SDS011;43164;50.908;18.092;2023-05-19T00:43:33;10.50;;;4.80;;
57331;SDS011;43164;50.908;18.092;2023-05-19T00:46:00;15.20;;;4.80;;
57331;SDS011;43164;50.908;18.092;2023-05-19T00:48:28;10.60;;;4.30;;
57331;SDS011;43164;50.908;18.092;2023-05-19T00:50:56;11.00;;;4.20;;
57331;SDS011;43164;50.908;18.092;2023-05-19T00:53:40;10.40;;;3.60;;
57331;SDS011;43164;50.908;18.092;2023-05-19T00:56:09;9.90;;;4.60;;
57331;SDS011;43164;50.908;18.092;2023-05-19T00:58:37;10.00;;;4.20;;
57331;SDS011;43164;50.908;18.092;2023-05-19T01:01:05;11.00;;;4.60;;
57331;SDS011;43164;50.908;18.092;2023-05-19T01:03:34;10.50;;;4.00;;
57331;SDS011;43164;50.908;18.092;2023-05-19T01:06:04;9.90;;;3.80;;
57331;SDS011;43164;50.908;18.092;2023-05-19T01:08:34;9.70;;;3.80;;
57331;SDS011;43164;50.908;18.092;2023-05-19T01:11:05;12.60;;;3.90;;
57331;SDS011;43164;50.908;18.092;2023-05-19T01:13:35;9.50;;;4.10;;
57331;SDS011;43164;50.908;18.092;2023-05-19T01:22:16;6.60;;;2.90;;
57331;SDS011;43164;50.908;18.092;2023-05-19T01:25:12;9.20;;;3.20;;
57331;SDS011;43164;50.908;18.092;2023-05-19T01:30:58;7.50;;;3.10;;
57331;SDS011;43164;50.908;18.092;2023-05-19T01:33:27;7.50;;;3.10;;
57331;SDS011;43164;50.908;18.092;2023-05-19T01:35:58;10.00;;;3.50;;
57331;SDS011;43164;50.908;18.092;2023-05-19T01:38:28;9.20;;;2.90;;
57331;SDS011;43164;50.908;18.092;2023-05-19T01:40:55;7.80;;;3.10;;
57331;SDS011;43164;50.908;18.092;2023-05-19T01:43:24;11.00;;;3.70;;
57331;SDS011;43164;50.908;18.092;2023-05-19T01:45:52;7.30;;;2.40;;
57331;SDS011;43164;50.908;18.092;2023-05-19T01:48:20;8.50;;;3.00;;
57331;SDS011;43164;50.908;18.092;2023-05-19T01:50:49;7.80;;;3.10;;
57331;SDS011;43164;50.908;18.092;2023-05-19T01:53:17;7.90;;;2.40;;
57331;SDS011;43164;50.908;18.092;2023-05-19T01:55:46;4.00;;;1.80;;
57331;SDS011;43164;50.908;18.092;2023-05-19T01:58:30;7.20;;;2.40;;
57331;SDS011;43164;50.908;18.092;2023-05-19T02:03:41;6.50;;;1.70;;
57331;SDS011;43164;50.908;18.092;2023-05-19T02:09:14;5.90;;;2.00;;
57331;SDS011;43164;50.908;18.092;2023-05-19T02:11:53;6.80;;;1.90;;
57331;SDS011;43164;50.908;18.092;2023-05-19T02:17:33;7.70;;;2.40;;
57331;SDS011;43164;50.908;18.092;2023-05-19T02:20:03;6.20;;;2.20;;
57331;SDS011;43164;50.908;18.092;2023-05-19T02:22:30;8.60;;;2.70;;
57331;SDS011;43164;50.908;18.092;2023-05-19T02:24:58;8.20;;;2.90;;
57331;SDS011;43164;50.908;18.092;2023-05-19T02:27:24;8.10;;;2.50;;
57331;SDS011;43164;50.908;18.092;2023-05-19T02:29:52;7.20;;;2.60;;
57331;SDS011;43164;50.908;18.092;2023-05-19T02:32:22;7.00;;;2.20;;
57331;SDS011;43164;50.908;18.092;2023-05-19T02:34:50;4.70;;;1.80;;
57331;SDS011;43164;50.908;18.092;2023-05-19T02:37:17;6.30;;;1.70;;
57331;SDS011;43164;50.908;18.092;2023-05-19T02:39:49;4.90;;;1.50;;
57331;SDS011;43164;50.908;18.092;2023-05-19T02:42:16;7.40;;;1.90;;
57331;SDS011;43164;50.908;18.092;2023-05-19T02:44:48;7.30;;;2.30;;
57331;SDS011;43164;50.908;18.092;2023-05-19T02:47:14;7.50;;;2.00;;
57331;SDS011;43164;50.908;18.092;2023-05-19T02:49:43;7.60;;;2.40;;
57331;SDS011;43164;50.908;18.092;2023-05-19T02:52:11;5.60;;;1.90;;
57331;SDS011;43164;50.908;18.092;2023-05-19T02:54:38;6.80;;;2.30;;
57331;SDS011;43164;50.908;18.092;2023-05-19T02:57:05;8.00;;;2.50;;
57331;SDS011;43164;50.908;18.092;2023-05-19T02:59:34;5.40;;;1.60;;
57331;SDS011;43164;50.908;18.092;2023-05-19T03:02:02;6.30;;;2.50;;
57331;SDS011;43164;50.908;18.092;2023-05-19T03:04:31;6.70;;;2.30;;
57331;SDS011;43164;50.908;18.092;2023-05-19T03:07:08;6.10;;;2.30;;
57331;SDS011;43164;50.908;18.092;2023-05-19T03:09:36;8.50;;;2.50;;
57331;SDS011;43164;50.908;18.092;2023-05-19T03:12:04;7.10;;;2.40;;
57331;SDS011;43164;50.908;18.092;2023-05-19T03:14:33;8.40;;;2.60;;
57331;SDS011;43164;50.908;18.092;2023-05-19T03:17:06;6.30;;;2.40;;
57331;SDS011;43164;50.908;18.092;2023-05-19T03:19:35;8.70;;;2.10;;
57331;SDS011;43164;50.908;18.092;2023-05-19T03:22:03;8.40;;;2.30;;
57331;SDS011;43164;50.908;18.092;2023-05-19T03:24:30;6.50;;;1.90;;
57331;SDS011;43164;50.908;18.092;2023-05-19T03:26:58;5.70;;;2.00;;
57331;SDS011;43164;50.908;18.092;2023-05-19T03:29:26;6.60;;;1.60;;
57331;SDS011;43164;50.908;18.092;2023-05-19T03:31:54;6.50;;;1.80;;
57331;SDS011;43164;50.908;18.092;2023-05-19T03:34:22;6.00;;;2.20;;
57331;SDS011;43164;50.908;18.092;2023-05-19T03:36:51;7.50;;;2.30;;
57331;SDS011;43164;50.908;18.092;2023-05-19T03:39:19;9.60;;;2.40;;
57331;SDS011;43164;50.908;18.092;2023-05-19T03:44:55;9.60;;;2.40;;
57331;SDS011;43164;50.908;18.092;2023-05-19T03:47:31;8.60;;;2.40;;
57331;SDS011;43164;50.908;18.092;2023-05-19T03:50:00;6.40;;;2.00;;
57331;SDS011;43164;50.908;18.092;2023-05-19T03:52:28;5.30;;;1.90;;
57331;SDS011;43164;50.908;18.092;2023-05-19T03:54:58;7.10;;;2.60;;
57331;SDS011;43164;50.908;18.092;2023-05-19T03:57:27;7.80;;;2.10;;
57331;SDS011;43164;50.908;18.092;2023-05-19T04:00:09;9.80;;;2.60;;
57331;SDS011;43164;50.908;18.092;2023-05-19T04:02:38;6.50;;;2.60;;
57331;SDS011;43164;50.908;18.092;2023-05-19T04:05:06;6.90;;;2.60;;
57331;SDS011;43164;50.908;18.092;2023-05-19T04:07:34;7.70;;;2.60;;
57331;SDS011;43164;50.908;18.092;2023-05-19T04:10:06;7.10;;;2.70;;
57331;SDS011;43164;50.908;18.092;2023-05-19T04:12:34;7.70;;;2.90;;
57331;SDS011;43164;50.908;18.092;2023-05-19T04:15:02;10.80;;;3.10;;
57331;SDS011;43164;50.908;18.092;2023-05-19T04:17:32;7.50;;;3.30;;
57331;SDS011;43164;50.908;18.092;2023-05-19T04:19:59;7.80;;;3.60;;
57331;SDS011;43164;50.908;18.092;2023-05-19T04:22:30;7.30;;;3.00;;
57331;SDS011;43164;50.908;18.092;2023-05-19T04:25:00;9.00;;;2.60;;
57331;SDS011;43164;50.908;18.092;2023-05-19T04:27:34;10.40;;;3.40;;
57331;SDS011;43164;50.908;18.092;2023-05-19T04:30:06;9.40;;;2.90;;
57331;SDS011;43164;50.908;18.092;2023-05-19T04:32:42;7.50;;;3.10;;
57331;SDS011;43164;50.908;18.092;2023-05-19T04:35:12;7.40;;;2.90;;
57331;SDS011;43164;50.908;18.092;2023-05-19T04:37:50;7.40;;;3.00;;
57331;SDS011;43164;50.908;18.092;2023-05-19T04:40:24;9.80;;;4.30;;
57331;SDS011;43164;50.908;18.092;2023-05-19T04:49:55;12.70;;;6.10;;
57331;SDS011;43164;50.908;18.092;2023-05-19T04:56:00;9.60;;;4.00;;
57331;SDS011;43164;50.908;18.092;2023-05-19T04:58:40;9.70;;;3.30;;
57331;SDS011;43164;50.908;18.092;2023-05-19T05:01:12;10.70;;;3.70;;
57331;SDS011;43164;50.908;18.092;2023-05-19T05:03:55;8.30;;;3.60;;
57331;SDS011;43164;50.908;18.092;2023-05-19T05:06:25;9.60;;;3.60;;
57331;SDS011;43164;50.908;18.092;2023-05-19T05:08:54;9.80;;;4.20;;
57331;SDS011;43164;50.908;18.092;2023-05-19T05:11:23;10.90;;;3.90;;
57331;SDS011;43164;50.908;18.092;2023-05-19T05:13:52;12.00;;;4.20;;
57331;SDS011;43164;50.908;18.092;2023-05-19T05:16:26;10.40;;;3.60;;
57331;SDS011;43164;50.908;18.092;2023-05-19T05:19:08;8.90;;;3.80;;
57331;SDS011;43164;50.908;18.092;2023-05-19T05:21:40;8.00;;;3.10;;
57331;SDS011;43164;50.908;18.092;2023-05-19T05:24:12;8.60;;;2.70;;
57331;SDS011;43164;50.908;18.092;2023-05-19T05:26:42;7.60;;;3.00;;
57331;SDS011;43164;50.908;18.092;2023-05-19T05:29:11;9.10;;;3.40;;
57331;SDS011;43164;50.908;18.092;2023-05-19T05:31:39;8.70;;;3.10;;
57331;SDS011;43164;50.908;18.092;2023-05-19T05:34:08;7.20;;;3.00;;
57331;SDS011;43164;50.908;18.092;2023-05-19T05:36:39;8.30;;;2.40;;
57331;SDS011;43164;50.908;18.092;2023-05-19T05:43:02;14.80;;;4.90;;
57331;SDS011;43164;50.908;18.092;2023-05-19T05:45:30;10.30;;;4.10;;
57331;SDS011;43164;50.908;18.092;2023-05-19T05:48:07;9.80;;;3.90;;
57331;SDS011;43164;50.908;18.092;2023-05-19T05:50:36;7.10;;;2.70;;
57331;SDS011;43164;50.908;18.092;2023-05-19T05:53:11;6.60;;;2.80;;
57331;SDS011;43164;50.908;18.092;2023-05-19T05:55:48;6.40;;;2.90;;
57331;SDS011;43164;50.908;18.092;2023-05-19T05:58:19;9.70;;;2.90;;
57331;SDS011;43164;50.908;18.092;2023-05-19T06:01:01;9.50;;;3.30;;
57331;SDS011;43164;50.908;18.092;2023-05-19T06:04:05;9.50;;;3.60;;
57331;SDS011;43164;50.908;18.092;2023-05-19T06:09:10;8.10;;;2.60;;
57331;SDS011;43164;50.908;18.092;2023-05-19T06:14:31;8.40;;;2.90;;
57331;SDS011;43164;50.908;18.092;2023-05-19T06:17:06;5.70;;;2.30;;
57331;SDS011;43164;50.908;18.092;2023-05-19T06:23:01;7.00;;;2.30;;
57331;SDS011;43164;50.908;18.092;2023-05-19T06:25:38;6.70;;;2.30;;
57331;SDS011;43164;50.908;18.092;2023-05-19T06:28:06;6.10;;;2.40;;
57331;SDS011;43164;50.908;18.092;2023-05-19T06:33:18;6.30;;;2.00;;
57331;SDS011;43164;50.908;18.092;2023-05-19T06:35:48;7.70;;;2.60;;
57331;SDS011;43164;50.908;18.092;2023-05-19T06:38:25;7.40;;;2.10;;
57331;SDS011;43164;50.908;18.092;2023-05-19T06:41:12;7.90;;;2.50;;
57331;SDS011;43164;50.908;18.092;2023-05-19T06:43:42;7.50;;;2.50;;
57331;SDS011;43164;50.908;18.092;2023-05-19T06:46:12;8.20;;;2.30;;
57331;SDS011;43164;50.908;18.092;2023-05-19T06:48:49;7.00;;;2.10;;
57331;SDS011;43164;50.908;18.092;2023-05-19T06:51:17;8.10;;;2.60;;
57331;SDS011;43164;50.908;18.092;2023-05-19T06:53:48;6.30;;;2.40;;
57331;SDS011;43164;50.908;18.092;2023-05-19T06:56:16;7.40;;;2.40;;
57331;SDS011;43164;50.908;18.092;2023-05-19T06:58:51;6.60;;;2.60;;
57331;SDS011;43164;50.908;18.092;2023-05-19T07:01:20;7.00;;;2.60;;
57331;SDS011;43164;50.908;18.092;2023-05-19T07:03:57;5.40;;;2.10;;
57331;SDS011;43164;50.908;18.092;2023-05-19T07:06:39;6.60;;;2.50;;
57331;SDS011;43164;50.908;18.092;2023-05-19T07:15:32;7.20;;;2.50;;
57331;SDS011;43164;50.908;18.092;2023-05-19T07:21:02;6.60;;;2.70;;
57331;SDS011;43164;50.908;18.092;2023-05-19T07:27:17;7.00;;;2.80;;
57331;SDS011;43164;50.908;18.092;2023-05-19T07:29:46;6.80;;;2.70;;
57331;SDS011;43164;50.908;18.092;2023-05-19T07:35:54;6.30;;;2.30;;
57331;SDS011;43164;50.908;18.092;2023-05-19T07:38:23;7.60;;;2.40;;
57331;SDS011;43164;50.908;18.092;2023-05-19T07:43:46;6.00;;;2.40;;
57331;SDS011;43164;50.908;18.092;2023-05-19T07:48:54;5.00;;;2.30;;
57331;SDS011;43164;50.908;18.092;2023-05-19T07:51:36;7.40;;;2.90;;
57331;SDS011;43164;50.908;18.092;2023-05-19T07:54:04;8.40;;;3.80;;
57331;SDS011;43164;50.908;18.092;2023-05-19T07:56:38;8.30;;;2.70;;
57331;SDS011;43164;50.908;18.092;2023-05-19T07:59:10;8.00;;;3.20;;
57331;SDS011;43164;50.908;18.092;2023-05-19T08:05:19;8.30;;;3.40;;
57331;SDS011;43164;50.908;18.092;2023-05-19T08:13:42;6.50;;;3.30;;
57331;SDS011;43164;50.908;18.092;2023-05-19T08:16:27;7.10;;;2.90;;
57331;SDS011;43164;50.908;18.092;2023-05-19T08:18:56;7.60;;;2.90;;
57331;SDS011;43164;50.908;18.092;2023-05-19T08:21:22;7.50;;;3.30;;
57331;SDS011;43164;50.908;18.092;2023-05-19T08:23:52;6.50;;;2.90;;
57331;SDS011;43164;50.908;18.092;2023-05-19T08:26:31;8.60;;;3.60;;
57331;SDS011;43164;50.908;18.092;2023-05-19T08:29:00;7.70;;;3.80;;
57331;SDS011;43164;50.908;18.092;2023-05-19T08:31:45;10.60;;;3.80;;
57331;SDS011;43164;50.908;18.092;2023-05-19T08:34:13;6.80;;;3.40;;
57331;SDS011;43164;50.908;18.092;2023-05-19T08:40:05;9.00;;;3.10;;
57331;SDS011;43164;50.908;18.092;2023-05-19T08:42:57;9.10;;;4.20;;
57331;SDS011;43164;50.908;18.092;2023-05-19T09:01:35;10.50;;;3.40;;
57331;SDS011;43164;50.908;18.092;2023-05-19T09:04:04;7.90;;;3.70;;
57331;SDS011;43164;50.908;18.092;2023-05-19T09:06:43;7.70;;;2.90;;
57331;SDS011;43164;50.908;18.092;2023-05-19T09:09:12;7.80;;;3.30;;
57331;SDS011;43164;50.908;18.092;2023-05-19T09:11:44;9.70;;;3.10;;
57331;SDS011;43164;50.908;18.092;2023-05-19T09:14:14;8.90;;;3.20;;
57331;SDS011;43164;50.908;18.092;2023-05-19T09:16:46;8.00;;;2.90;;
57331;SDS011;43164;50.908;18.092;2023-05-19T09:19:21;7.00;;;3.20;;
57331;SDS011;43164;50.908;18.092;2023-05-19T09:21:58;8.30;;;3.40;;
57331;SDS011;43164;50.908;18.092;2023-05-19T09:24:45;8.00;;;2.80;;
57331;SDS011;43164;50.908;18.092;2023-05-19T09:51:23;9.30;;;3.30;;
57331;SDS011;43164;50.908;18.092;2023-05-19T09:57:07;9.20;;;3.80;;
57331;SDS011;43164;50.908;18.092;2023-05-19T09:59:42;9.10;;;3.50;;
57331;SDS011;43164;50.908;18.092;2023-05-19T10:02:14;8.70;;;4.30;;
57331;SDS011;43164;50.908;18.092;2023-05-19T10:04:54;11.00;;;7.40;;
57331;SDS011;43164;50.908;18.092;2023-05-19T10:07:22;7.90;;;4.80;;
57331;SDS011;43164;50.908;18.092;2023-05-19T10:09:59;15.80;;;12.70;;
57331;SDS011;43164;50.908;18.092;2023-05-19T10:16:11;13.90;;;10.70;;
57331;SDS011;43164;50.908;18.092;2023-05-19T10:18:56;11.70;;;6.00;;
57331;SDS011;43164;50.908;18.092;2023-05-19T10:21:26;9.70;;;4.20;;
57331;SDS011;43164;50.908;18.092;2023-05-19T10:24:03;8.80;;;3.90;;
57331;SDS011;43164;50.908;18.092;2023-05-19T10:30:22;9.90;;;4.40;;
57331;SDS011;43164;50.908;18.092;2023-05-19T10:33:16;8.40;;;3.40;;
57331;SDS011;43164;50.908;18.092;2023-05-19T10:39:10;8.80;;;3.70;;
57331;SDS011;43164;50.908;18.092;2023-05-19T10:47:24;8.60;;;4.10;;
57331;SDS011;43164;50.908;18.092;2023-05-19T11:01:51;10.60;;;4.50;;
57331;SDS011;43164;50.908;18.092;2023-05-19T11:13:54;7.10;;;3.50;;
57331;SDS011;43164;50.908;18.092;2023-05-19T11:16:29;7.80;;;3.50;;
57331;SDS011;43164;50.908;18.092;2023-05-19T11:18:59;7.30;;;3.10;;
57331;SDS011;43164;50.908;18.092;2023-05-19T11:27:25;6.90;;;2.80;;
57331;SDS011;43164;50.908;18.092;2023-05-19T11:32:39;8.40;;;3.00;;
57331;SDS011;43164;50.908;18.092;2023-05-19T11:35:12;8.10;;;2.90;;
57331;SDS011;43164;50.908;18.092;2023-05-19T11:37:41;7.90;;;3.40;;
57331;SDS011;43164;50.908;18.092;2023-05-19T11:40:14;6.50;;;3.20;;
57331;SDS011;43164;50.908;18.092;2023-05-19T12:04:33;7.10;;;3.00;;
57331;SDS011;43164;50.908;18.092;2023-05-19T12:09:57;7.10;;;3.10;;
57331;SDS011;43164;50.908;18.092;2023-05-19T12:15:35;6.50;;;2.90;;
57331;SDS011;43164;50.908;18.092;2023-05-19T12:18:09;6.60;;;2.60;;
57331;SDS011;43164;50.908;18.092;2023-05-19T12:31:41;7.40;;;3.40;;
57331;SDS011;43164;50.908;18.092;2023-05-19T12:34:43;8.00;;;3.30;;
57331;SDS011;43164;50.908;18.092;2023-05-19T12:40:37;8.50;;;3.80;;
57331;SDS011;43164;50.908;18.092;2023-05-19T12:46:12;7.60;;;3.80;;
57331;SDS011;43164;50.908;18.092;2023-05-19T12:59:19;6.30;;;2.80;;
57331;SDS011;43164;50.908;18.092;2023-05-19T13:12:17;6.50;;;2.90;;
57331;SDS011;43164;50.908;18.092;2023-05-19T13:28:49;8.20;;;3.40;;
57331;SDS011;43164;50.908;18.092;2023-05-19T13:34:40;7.50;;;3.60;;
57331;SDS011;43164;50.908;18.092;2023-05-19T13:37:10;8.80;;;3.90;;
57331;SDS011;43164;50.908;18.092;2023-05-19T14:05:58;12.30;;;6.80;;
57331;SDS011;43164;50.908;18.092;2023-05-19T14:08:53;8.40;;;4.80;;
57331;SDS011;43164;50.908;18.092;2023-05-19T14:14:47;12.00;;;5.70;;
57331;SDS011;43164;50.908;18.092;2023-05-19T14:17:30;11.50;;;6.10;;
57331;SDS011;43164;50.908;18.092;2023-05-19T14:20:12;9.90;;;4.90;;
57331;SDS011;43164;50.908;18.092;2023-05-19T14:23:06;10.00;;;5.00;;
57331;SDS011;43164;50.908;18.092;2023-05-19T14:28:57;9.60;;;4.60;;
57331;SDS011;43164;50.908;18.092;2023-05-19T14:34:25;9.70;;;5.30;;
57331;SDS011;43164;50.908;18.092;2023-05-19T14:37:04;9.20;;;4.80;;
57331;SDS011;43164;50.908;18.092;2023-05-19T14:42:38;9.50;;;4.80;;
57331;SDS011;43164;50.908;18.092;2023-05-19T14:45:34;10.90;;;5.70;;
57331;SDS011;43164;50.908;18.092;2023-05-19T14:48:25;8.30;;;4.60;;
57331;SDS011;43164;50.908;18.092;2023-05-19T14:53:52;12.10;;;5.60;;
57331;SDS011;43164;50.908;18.092;2023-05-19T14:56:38;11.20;;;5.10;;
57331;SDS011;43164;50.908;18.092;2023-05-19T14:59:21;10.40;;;5.30;;
57331;SDS011;43164;50.908;18.092;2023-05-19T15:11:30;9.10;;;5.10;;
57331;SDS011;43164;50.908;18.092;2023-05-19T15:14:06;9.50;;;5.20;;
57331;SDS011;43164;50.908;18.092;2023-05-19T15:16:55;12.20;;;5.30;;
57331;SDS011;43164;50.908;18.092;2023-05-19T15:19:30;10.70;;;5.70;;
57331;SDS011;43164;50.908;18.092;2023-05-19T15:22:05;10.00;;;5.60;;
57331;SDS011;43164;50.908;18.092;2023-05-19T15:24:45;10.40;;;5.80;;
57331;SDS011;43164;50.908;18.092;2023-05-19T15:27:41;10.20;;;5.10;;
57331;SDS011;43164;50.908;18.092;2023-05-19T15:30:18;11.20;;;6.40;;
57331;SDS011;43164;50.908;18.092;2023-05-19T15:32:55;12.80;;;5.70;;
57331;SDS011;43164;50.908;18.092;2023-05-19T15:35:33;11.20;;;5.90;;
57331;SDS011;43164;50.908;18.092;2023-05-19T15:38:32;9.90;;;5.90;;
57331;SDS011;43164;50.908;18.092;2023-05-19T15:41:29;11.80;;;6.50;;
57331;SDS011;43164;50.908;18.092;2023-05-19T15:47:28;14.90;;;8.20;;
57331;SDS011;43164;50.908;18.092;2023-05-19T15:50:05;12.40;;;7.80;;
57331;SDS011;43164;50.908;18.092;2023-05-19T15:52:57;12.20;;;7.90;;
57331;SDS011;43164;50.908;18.092;2023-05-19T15:55:41;14.10;;;7.40;;
57331;SDS011;43164;50.908;18.092;2023-05-19T15:58:16;12.20;;;7.00;;
57331;SDS011;43164;50.908;18.092;2023-05-19T16:00:58;13.90;;;7.90;;
57331;SDS011;43164;50.908;18.092;2023-05-19T16:03:40;13.50;;;7.80;;
57331;SDS011;43164;50.908;18.092;2023-05-19T16:06:32;12.80;;;7.80;;
57331;SDS011;43164;50.908;18.092;2023-05-19T16:12:45;17.20;;;8.70;;
57331;SDS011;43164;50.908;18.092;2023-05-19T16:22:01;17.20;;;9.10;;
57331;SDS011;43164;50.908;18.092;2023-05-19T16:44:31;15.40;;;8.70;;
57331;SDS011;43164;50.908;18.092;2023-05-19T17:28:52;16.10;;;9.20;;
57331;SDS011;43164;50.908;18.092;2023-05-19T18:27:22;16.20;;;10.10;;
57331;SDS011;43164;50.908;18.092;2023-05-19T18:39:42;18.70;;;11.70;;
57331;SDS011;43164;50.908;18.092;2023-05-19T19:16:17;20.40;;;12.10;;
57331;SDS011;43164;50.908;18.092;2023-05-19T19:22:14;20.80;;;12.30;;
57331;SDS011;43164;50.908;18.092;2023-05-19T19:24:52;21.10;;;11.80;;
57331;SDS011;43164;50.908;18.092;2023-05-19T19:27:25;20.10;;;12.10;;
57331;SDS011;43164;50.908;18.092;2023-05-19T19:30:00;20.20;;;12.10;;
57331;SDS011;43164;50.908;18.092;2023-05-19T19:32:32;21.60;;;12.10;;
57331;SDS011;43164;50.908;18.092;2023-05-19T19:35:09;19.60;;;11.80;;
57331;SDS011;43164;50.908;18.092;2023-05-19T19:37:59;18.90;;;12.10;;
57331;SDS011;43164;50.908;18.092;2023-05-19T19:40:49;22.40;;;12.30;;
57331;SDS011;43164;50.908;18.092;2023-05-19T19:43:47;22.00;;;11.80;;
57331;SDS011;43164;50.908;18.092;2023-05-19T19:46:29;18.30;;;11.40;;
57331;SDS011;43164;50.908;18.092;2023-05-19T19:49:16;20.60;;;11.20;;
57331;SDS011;43164;50.908;18.092;2023-05-19T19:51:50;20.40;;;11.00;;
57331;SDS011;43164;50.908;18.092;2023-05-19T19:54:29;18.40;;;11.50;;
57331;SDS011;43164;50.908;18.092;2023-05-19T19:57:04;19.40;;;11.10;;
57331;SDS011;43164;50.908;18.092;2023-05-19T19:59:51;17.60;;;9.70;;
57331;SDS011;43164;50.908;18.092;2023-05-19T20:02:55;17.50;;;9.20;;
57331;SDS011;43164;50.908;18.092;2023-05-19T20:05:37;16.60;;;9.70;;
57331;SDS011;43164;50.908;18.092;2023-05-19T20:08:12;16.90;;;9.80;;
57331;SDS011;43164;50.908;18.092;2023-05-19T20:10:56;16.30;;;10.00;;
57331;SDS011;43164;50.908;18.092;2023-05-19T20:13:36;16.50;;;10.10;;
57331;SDS011;43164;50.908;18.092;2023-05-19T21:09:08;17.80;;;10.70;;
57331;SDS011;43164;50.908;18.092;2023-05-19T21:29:51;19.10;;;11.00;;
57331;SDS011;43164;50.908;18.092;2023-05-19T21:32:44;20.00;;;11.70;;
57331;SDS011;43164;50.908;18.092;2023-05-19T21:42:07;20.00;;;11.90;;
57331;SDS011;43164;50.908;18.092;2023-05-19T21:44:36;20.20;;;12.60;;
57331;SDS011;43164;50.908;18.092;2023-05-19T21:47:04;23.60;;;13.50;;
57331;SDS011;43164;50.908;18.092;2023-05-19T21:49:32;23.60;;;13.30;;
57331;SDS011;43164;50.908;18.092;2023-05-19T21:52:00;22.70;;;13.00;;
57331;SDS011;43164;50.908;18.092;2023-05-19T21:54:28;21.10;;;12.70;;
57331;SDS011;43164;50.908;18.092;2023-05-19T21:56:56;19.50;;;12.00;;
57331;SDS011;43164;50.908;18.092;2023-05-19T21:59:29;24.10;;;13.40;;
57331;SDS011;43164;50.908;18.092;2023-05-19T22:02:01;25.50;;;13.40;;
57331;SDS011;43164;50.908;18.092;2023-05-19T22:04:42;22.50;;;12.60;;
57331;SDS011;43164;50.908;18.092;2023-05-19T22:07:11;20.70;;;11.80;;
57331;SDS011;43164;50.908;18.092;2023-05-19T22:09:53;22.10;;;12.50;;
57331;SDS011;43164;50.908;18.092;2023-05-19T22:12:23;21.30;;;12.70;;
57331;SDS011;43164;50.908;18.092;2023-05-19T22:14:55;21.00;;;12.20;;
57331;SDS011;43164;50.908;18.092;2023-05-19T22:17:24;22.00;;;13.40;;
57331;SDS011;43164;50.908;18.092;2023-05-19T22:20:01;21.30;;;12.70;;
57331;SDS011;43164;50.908;18.092;2023-05-19T22:22:30;22.10;;;12.30;;
57331;SDS011;43164;50.908;18.092;2023-05-19T22:25:06;20.30;;;11.20;;
57331;SDS011;43164;50.908;18.092;2023-05-19T22:30:49;21.90;;;12.40;;
57331;SDS011;43164;50.908;18.092;2023-05-19T22:33:20;24.30;;;13.90;;
57331;SDS011;43164;50.908;18.092;2023-05-19T22:35:48;23.10;;;12.70;;
57331;SDS011;43164;50.908;18.092;2023-05-19T22:38:18;20.00;;;11.80;;
57331;SDS011;43164;50.908;18.092;2023-05-19T22:51:40;20.00;;;12.00;;
57331;SDS011;43164;50.908;18.092;2023-05-19T22:54:11;20.60;;;13.10;;
57331;SDS011;43164;50.908;18.092;2023-05-19T22:56:51;21.50;;;12.10;;
57331;SDS011;43164;50.908;18.092;2023-05-19T22:59:32;22.10;;;12.50;;
57331;SDS011;43164;50.908;18.092;2023-05-19T23:05:10;19.40;;;12.40;;
57331;SDS011;43164;50.908;18.092;2023-05-19T23:07:40;22.30;;;12.90;;
57331;SDS011;43164;50.908;18.092;2023-05-19T23:10:09;22.50;;;13.80;;
57331;SDS011;43164;50.908;18.092;2023-05-19T23:12:37;23.00;;;13.70;;
57331;SDS011;43164;50.908;18.092;2023-05-19T23:15:06;23.90;;;14.00;;
57331;SDS011;43164;50.908;18.092;2023-05-19T23:17:44;22.50;;;13.60;;
57331;SDS011;43164;50.908;18.092;2023-05-19T23:20:13;21.70;;;13.80;;
57331;SDS011;43164;50.908;18.092;2023-05-19T23:22:40;23.40;;;13.50;;
57331;SDS011;43164;50.908;18.092;2023-05-19T23:25:08;22.60;;;13.80;;
57331;SDS011;43164;50.908;18.092;2023-05-19T23:27:36;21.80;;;13.50;;
57331;SDS011;43164;50.908;18.092;2023-05-19T23:30:05;22.60;;;13.20;;
57331;SDS011;43164;50.908;18.092;2023-05-19T23:32:33;21.70;;;13.50;;
57331;SDS011;43164;50.908;18.092;2023-05-19T23:35:10;23.90;;;13.20;;
57331;SDS011;43164;50.908;18.092;2023-05-19T23:37:39;23.10;;;13.30;;
57331;SDS011;43164;50.908;18.092;2023-05-19T23:40:08;21.30;;;12.80;;
57331;SDS011;43164;50.908;18.092;2023-05-19T23:42:36;24.00;;;14.20;;
57331;SDS011;43164;50.908;18.092;2023-05-19T23:45:04;23.80;;;13.20;;
57331;SDS011;43164;50.908;18.092;2023-05-19T23:47:33;23.40;;;14.10;;
57331;SDS011;43164;50.908;18.092;2023-05-19T23:50:01;22.50;;;12.90;;
57331;SDS011;43164;50.908;18.092;2023-05-19T23:52:29;23.70;;;12.70;;
57331;SDS011;43164;50.908;18.092;2023-05-19T23:54:58;21.80;;;13.10;;
57331;SDS011;43164;50.908;18.092;2023-05-19T23:57:26;19.80;;;12.10;;
57331;SDS011;43164;50.908;18.092;2023-05-19T23:59:54;22.50;;;13.70;;
